Time;durP1;ratioP1;P1;durP2;ratioP2;P2;SDS_P1;SDS_P2;PMS_P1;PMS_P2;Temp;Humidity;BMP_temperature;BMP_pressure;BME280_temperature;BME280_humidity;BME280_pressure;Samples;Min_cycle;Max_cycle;Signal;HPM_P1;HPM_P2
2021/09/04 00:01:31;;;;;;;8.10;6.27;;;23.80;51.70;;;;;;5007015;28;20669;-45
2021/09/04 00:03:56;;;;;;;9.90;5.73;;;23.70;51.60;;;;;;5010323;28;20276;-45
2021/09/04 00:06:22;;;;;;;6.70;6.00;;;23.70;51.80;;;;;;5011987;28;20752;-45
2021/09/04 00:08:48;;;;;;;6.93;6.23;;;23.90;51.30;;;;;;5012518;28;20221;-47
2021/09/04 00:11:14;;;;;;;7.70;6.50;;;24.10;51.00;;;;;;5006478;28;20944;-45
2021/09/04 00:13:40;;;;;;;8.47;7.57;;;24.10;50.70;;;;;;5008742;28;20194;-44
2021/09/04 00:16:05;;;;;;;7.77;6.97;;;24.10;50.70;;;;;;5008638;28;20452;-46
2021/09/04 00:18:33;;;;;;;6.93;6.23;;;24.10;50.60;;;;;;5007590;28;20198;-46
2021/09/04 00:21:00;;;;;;;6.13;5.63;;;24.10;50.70;;;;;;5012868;28;20631;-49
2021/09/04 00:23:25;;;;;;;6.40;5.80;;;24.00;50.90;;;;;;5007940;28;20445;-47
2021/09/04 00:25:51;;;;;;;7.63;6.33;;;24.00;50.90;;;;;;5004401;28;20494;-45
2021/09/04 00:28:17;;;;;;;6.73;6.13;;;24.00;50.90;;;;;;5009348;28;20286;-45
2021/09/04 00:30:42;;;;;;;6.80;6.20;;;24.00;50.90;;;;;;5012676;28;20198;-45
2021/09/04 00:33:08;;;;;;;6.93;6.30;;;23.90;51.00;;;;;;5007535;28;20201;-45
2021/09/04 00:35:33;;;;;;;7.10;6.30;;;23.80;51.30;;;;;;5010536;28;20210;-45
2021/09/04 00:37:59;;;;;;;6.50;5.90;;;23.90;51.30;;;;;;5006415;28;20202;-47
2021/09/04 00:40:25;;;;;;;6.50;6.00;;;23.80;51.30;;;;;;5009268;28;20197;-45
2021/09/04 00:42:50;;;;;;;8.07;6.47;;;23.90;51.20;;;;;;5009591;28;20598;-45
2021/09/04 00:45:16;;;;;;;7.10;6.40;;;23.90;51.20;;;;;;5009244;28;20768;-47
2021/09/04 00:47:53;;;;;;;7.53;6.80;;;23.80;51.40;;;;;;5010066;28;20256;-44
2021/09/04 00:50:19;;;;;;;7.27;6.60;;;23.70;51.20;;;;;;5011369;28;20216;-45
2021/09/04 00:52:45;;;;;;;6.70;6.10;;;23.70;51.60;;;;;;5010413;28;20441;-44
2021/09/04 00:55:10;;;;;;;6.03;5.53;;;23.60;51.40;;;;;;5002464;28;20198;-46
2021/09/04 00:57:36;;;;;;;8.70;6.97;;;23.60;51.80;;;;;;5005430;28;20564;-44
2021/09/04 01:00:03;;;;;;;7.57;6.87;;;23.60;51.70;;;;;;5013479;28;20260;-44
2021/09/04 01:02:30;;;;;;;8.53;6.27;;;23.70;51.50;;;;;;5007397;28;20654;-45
2021/09/04 01:04:55;;;;;;;6.00;5.50;;;23.70;51.30;;;;;;5008649;28;20460;-45
2021/09/04 01:07:21;;;;;;;6.53;6.00;;;23.60;51.70;;;;;;5006894;28;20492;-44
2021/09/04 01:09:47;;;;;;;7.63;6.80;;;23.70;50.90;;;;;;5011693;28;20320;-44
2021/09/04 01:12:13;;;;;;;7.40;6.50;;;23.50;51.30;;;;;;5008206;28;20939;-44
2021/09/04 01:14:39;;;;;;;6.67;6.07;;;23.50;51.50;;;;;;5007968;28;20594;-44
2021/09/04 01:17:05;;;;;;;6.67;5.77;;;23.50;51.70;;;;;;5006148;28;20534;-45
2021/09/04 01:19:32;;;;;;;7.60;6.90;;;23.50;51.70;;;;;;5010584;28;20190;-46
2021/09/04 01:21:58;;;;;;;7.93;6.93;;;23.40;51.80;;;;;;5011367;28;20457;-44
2021/09/04 01:24:23;;;;;;;6.43;5.90;;;23.40;52.00;;;;;;5007857;28;20445;-45
2021/09/04 01:26:50;;;;;;;7.47;6.70;;;23.40;51.80;;;;;;5004323;28;20287;-44
2021/09/04 01:29:15;;;;;;;8.77;6.17;;;23.30;51.40;;;;;;5004398;28;20948;-45
2021/09/04 01:31:41;;;;;;;6.60;6.00;;;23.00;52.60;;;;;;5006638;28;21747;-44
2021/09/04 01:34:07;;;;;;;6.60;5.83;;;22.90;52.80;;;;;;5008124;28;20228;-45
2021/09/04 01:36:36;;;;;;;7.17;5.73;;;22.90;52.80;;;;;;4998304;28;20666;-46
2021/09/04 01:39:04;;;;;;;6.40;5.80;;;23.00;52.60;;;;;;5009590;28;20194;-44
2021/09/04 01:41:30;;;;;;;7.40;6.70;;;23.10;52.20;;;;;;5007288;28;20436;-44
2021/09/04 01:43:56;;;;;;;13.60;7.20;;;23.10;52.10;;;;;;5009498;28;20699;-45
2021/09/04 01:46:22;;;;;;;7.63;6.40;;;23.20;52.10;;;;;;5007569;28;20531;-46
2021/09/04 01:48:48;;;;;;;6.10;5.60;;;23.20;51.90;;;;;;4999056;28;20607;-45
2021/09/04 01:51:15;;;;;;;6.10;5.53;;;23.20;52.00;;;;;;5001227;28;20256;-45
2021/09/04 01:53:41;;;;;;;7.20;5.97;;;23.10;51.90;;;;;;5005812;28;20203;-48
2021/09/04 01:56:08;;;;;;;6.77;6.17;;;23.20;51.60;;;;;;5005752;28;20449;-45
2021/09/04 01:58:34;;;;;;;6.37;5.70;;;23.10;52.10;;;;;;5002956;28;20613;-44
2021/09/04 02:00:59;;;;;;;7.20;6.60;;;23.00;52.40;;;;;;5006906;28;20543;-45
2021/09/04 02:03:25;;;;;;;9.60;5.53;;;23.00;52.60;;;;;;5005387;28;20212;-46
2021/09/04 02:05:50;;;;;;;9.10;5.63;;;23.00;52.20;;;;;;5002884;28;20550;-45
2021/09/04 02:08:16;;;;;;;9.43;7.60;;;23.00;52.10;;;;;;5002823;28;20241;-45
2021/09/04 02:10:42;;;;;;;7.87;5.90;;;23.00;52.00;;;;;;5009435;28;20228;-44
2021/09/04 02:13:08;;;;;;;6.43;5.73;;;23.00;52.50;;;;;;5007904;28;20222;-45
2021/09/04 02:15:34;;;;;;;8.33;5.73;;;23.10;52.30;;;;;;5008597;28;20195;-45
2021/09/04 02:18:00;;;;;;;5.67;5.17;;;23.10;51.70;;;;;;5008726;28;20244;-46
2021/09/04 02:20:25;;;;;;;6.80;5.80;;;23.10;51.50;;;;;;5009938;28;20445;-45
2021/09/04 02:22:51;;;;;;;6.50;5.90;;;23.10;52.00;;;;;;5006366;28;20207;-45
2021/09/04 02:25:16;;;;;;;8.50;5.50;;;23.10;51.70;;;;;;5002919;28;21850;-47
2021/09/04 02:27:42;;;;;;;8.40;6.00;;;23.10;51.70;;;;;;5008069;28;20587;-44
2021/09/04 02:30:09;;;;;;;9.30;6.50;;;23.10;51.60;;;;;;5007633;28;20273;-45
2021/09/04 02:32:36;;;;;;;6.77;5.17;;;23.10;51.70;;;;;;5001597;28;20202;-44
2021/09/04 02:35:02;;;;;;;5.90;5.40;;;23.00;51.80;;;;;;4999954;28;20541;-45
2021/09/04 02:37:28;;;;;;;6.40;5.80;;;23.00;51.90;;;;;;5002955;28;20544;-44
2021/09/04 02:39:53;;;;;;;6.30;5.80;;;23.00;51.70;;;;;;5009447;28;20963;-45
2021/09/04 02:42:19;;;;;;;6.07;5.57;;;23.00;51.70;;;;;;5007465;28;20190;-45
2021/09/04 02:44:45;;;;;;;6.53;5.80;;;23.00;51.80;;;;;;5004139;28;20241;-46
2021/09/04 02:47:10;;;;;;;8.43;5.87;;;22.90;51.90;;;;;;5007289;28;20284;-45
2021/09/04 02:49:36;;;;;;;8.20;5.60;;;22.90;52.10;;;;;;5008175;28;20201;-44
2021/09/04 02:52:02;;;;;;;6.50;5.80;;;22.90;52.10;;;;;;5012064;28;20213;-46
2021/09/04 02:54:28;;;;;;;5.77;5.27;;;22.90;51.90;;;;;;5002768;28;20209;-46
2021/09/04 02:56:53;;;;;;;7.60;6.80;;;23.00;51.80;;;;;;5006385;28;20240;-45
2021/09/04 02:59:19;;;;;;;7.97;6.27;;;22.90;51.60;;;;;;5006179;28;20240;-45
2021/09/04 03:01:44;;;;;;;6.47;5.87;;;23.00;51.70;;;;;;5007302;28;20213;-45
2021/09/04 03:04:10;;;;;;;6.00;5.50;;;23.00;51.50;;;;;;5006574;28;20650;-44
2021/09/04 03:06:35;;;;;;;6.47;5.20;;;22.80;51.80;;;;;;5008474;28;20257;-46
2021/09/04 03:09:01;;;;;;;7.73;6.67;;;22.80;51.80;;;;;;5006713;28;20200;-45
2021/09/04 03:11:27;;;;;;;6.53;6.03;;;22.90;50.30;;;;;;5005816;28;20236;-44
2021/09/04 03:13:53;;;;;;;5.83;5.33;;;22.80;51.70;;;;;;5003372;28;20205;-44
2021/09/04 03:16:18;;;;;;;6.40;5.80;;;22.70;52.00;;;;;;5002417;28;20204;-46
2021/09/04 03:18:44;;;;;;;7.27;5.60;;;22.70;51.80;;;;;;5000707;28;20994;-44
2021/09/04 03:21:10;;;;;;;8.60;6.10;;;22.70;51.80;;;;;;5000885;28;20220;-48
2021/09/04 03:23:36;;;;;;;6.37;5.77;;;22.80;51.80;;;;;;5006600;28;20455;-46
2021/09/04 03:26:02;;;;;;;5.73;5.13;;;22.80;51.50;;;;;;5004955;28;20507;-46
2021/09/04 03:28:28;;;;;;;5.80;5.30;;;22.70;51.90;;;;;;5003459;28;20492;-46
2021/09/04 03:30:54;;;;;;;6.10;5.57;;;22.70;52.40;;;;;;5005172;28;20527;-44
2021/09/04 03:33:19;;;;;;;7.00;6.30;;;22.70;51.70;;;;;;5005482;28;20206;-45
2021/09/04 03:35:45;;;;;;;6.77;5.80;;;22.70;51.40;;;;;;5006409;28;20244;-45
2021/09/04 03:38:10;;;;;;;6.37;5.50;;;22.80;51.30;;;;;;5003818;28;20248;-45
2021/09/04 03:40:36;;;;;;;6.67;6.00;;;22.70;51.70;;;;;;5009698;28;20281;-46
2021/09/04 03:43:02;;;;;;;6.60;5.90;;;22.70;51.60;;;;;;5007333;28;20555;-45
2021/09/04 03:45:27;;;;;;;6.97;6.27;;;22.60;51.80;;;;;;5007998;28;20289;-45
2021/09/04 03:47:53;;;;;;;6.03;5.53;;;22.60;51.80;;;;;;5002846;28;20232;-44
2021/09/04 03:50:18;;;;;;;6.40;5.80;;;22.60;51.60;;;;;;5008712;28;20649;-45
2021/09/04 03:52:44;;;;;;;9.80;6.27;;;22.80;51.20;;;;;;5007196;28;20243;-44
2021/09/04 03:55:10;;;;;;;5.63;5.13;;;22.70;51.20;;;;;;5004458;28;20202;-44
2021/09/04 03:57:36;;;;;;;6.63;5.90;;;22.80;51.00;;;;;;4998664;28;20280;-48
2021/09/04 04:00:03;;;;;;;8.17;5.87;;;22.70;51.30;;;;;;5009916;28;20198;-44
2021/09/04 04:02:28;;;;;;;6.30;5.70;;;22.70;51.30;;;;;;5008310;28;20237;-45
2021/09/04 04:04:54;;;;;;;6.43;5.67;;;22.60;51.50;;;;;;5008027;28;20475;-44
2021/09/04 04:07:19;;;;;;;6.40;5.70;;;22.60;51.60;;;;;;5007288;28;20298;-45
2021/09/04 04:09:45;;;;;;;6.63;6.03;;;22.70;51.20;;;;;;5010358;28;20202;-44
2021/09/04 04:12:11;;;;;;;6.50;5.90;;;22.60;50.60;;;;;;5009198;28;20252;-44
2021/09/04 04:14:36;;;;;;;6.83;6.13;;;22.60;51.00;;;;;;5010474;28;20293;-44
2021/09/04 04:17:02;;;;;;;12.60;6.00;;;22.50;51.40;;;;;;5012488;28;20268;-47
2021/09/04 04:19:29;;;;;;;6.03;5.33;;;22.50;51.70;;;;;;5009441;28;20595;-44
2021/09/04 04:21:54;;;;;;;7.07;5.40;;;22.50;51.40;;;;;;5008939;28;20193;-44
2021/09/04 04:24:20;;;;;;;6.30;5.70;;;22.50;51.50;;;;;;5003256;28;20948;-44
2021/09/04 04:26:46;;;;;;;7.43;5.77;;;22.50;51.20;;;;;;5005661;28;20295;-46
2021/09/04 04:29:11;;;;;;;6.03;5.50;;;22.40;51.70;;;;;;5006919;28;20599;-45
2021/09/04 04:31:38;;;;;;;6.53;5.93;;;22.40;51.60;;;;;;5013346;28;20212;-44
2021/09/04 04:34:04;;;;;;;5.63;5.20;;;22.50;51.40;;;;;;5006576;28;20247;-44
2021/09/04 04:36:30;;;;;;;6.30;5.70;;;22.50;51.30;;;;;;5010041;28;20441;-44
2021/09/04 04:38:56;;;;;;;6.23;5.63;;;22.50;51.10;;;;;;5005036;28;20884;-44
2021/09/04 04:41:21;;;;;;;11.50;5.90;;;22.70;51.00;;;;;;5005327;28;20202;-47
2021/09/04 04:43:47;;;;;;;5.67;5.13;;;22.60;51.00;;;;;;5010381;28;20513;-46
2021/09/04 04:46:13;;;;;;;8.83;5.33;;;22.60;51.00;;;;;;5012053;28;20190;-46
2021/09/04 04:48:39;;;;;;;6.20;5.60;;;22.50;51.20;;;;;;5010103;28;20665;-44
2021/09/04 04:51:05;;;;;;;9.23;5.70;;;22.50;51.10;;;;;;5007414;28;20194;-44
2021/09/04 04:53:30;;;;;;;6.20;5.70;;;22.50;51.40;;;;;;5011563;28;20681;-45
2021/09/04 04:55:56;;;;;;;5.90;5.30;;;22.50;51.20;;;;;;5005848;28;20460;-46
2021/09/04 04:58:22;;;;;;;6.50;5.90;;;22.50;50.70;;;;;;5007943;28;20234;-44
2021/09/04 05:00:48;;;;;;;6.00;5.40;;;22.50;50.60;;;;;;5010594;28;20335;-46
2021/09/04 05:03:14;;;;;;;7.83;5.90;;;22.40;51.00;;;;;;5007306;28;20812;-44
2021/09/04 05:05:39;;;;;;;6.67;5.30;;;22.20;50.40;;;;;;5010120;28;20444;-44
2021/09/04 05:08:05;;;;;;;7.03;5.63;;;21.90;51.80;;;;;;5003584;28;20236;-45
2021/09/04 05:10:31;;;;;;;8.40;5.87;;;21.90;51.80;;;;;;5006675;28;20205;-45
2021/09/04 05:12:57;;;;;;;5.73;5.23;;;21.80;52.20;;;;;;5007984;28;20194;-45
2021/09/04 05:15:22;;;;;;;6.27;5.77;;;21.90;52.20;;;;;;5010239;28;20449;-44
2021/09/04 05:17:48;;;;;;;7.70;6.03;;;22.00;51.90;;;;;;5008575;28;20711;-46
2021/09/04 05:20:14;;;;;;;7.57;6.87;;;22.00;51.10;;;;;;5011114;28;20197;-47
2021/09/04 05:22:45;;;;;;;6.90;6.17;;;22.10;50.30;;;;;;5007140;28;20189;-44
2021/09/04 05:25:10;;;;;;;13.27;7.23;;;22.00;50.10;;;;;;5006356;28;20198;-45
2021/09/04 05:27:37;;;;;;;7.30;6.60;;;21.80;52.70;;;;;;5005764;28;20496;-45
2021/09/04 05:30:02;;;;;;;7.20;6.07;;;21.80;51.90;;;;;;5011607;28;20715;-45
2021/09/04 05:32:28;;;;;;;5.77;5.27;;;21.80;51.30;;;;;;5009195;28;20479;-44
2021/09/04 05:34:54;;;;;;;7.17;6.47;;;21.90;51.10;;;;;;5005522;28;20190;-45
2021/09/04 05:37:19;;;;;;;7.10;6.30;;;22.00;51.00;;;;;;5007898;28;20680;-45
2021/09/04 05:39:46;;;;;;;6.03;5.53;;;21.90;50.70;;;;;;5004399;28;20201;-50
2021/09/04 05:42:11;;;;;;;7.77;6.27;;;21.90;51.00;;;;;;5000544;28;20226;-45
2021/09/04 05:44:37;;;;;;;8.23;6.90;;;21.80;50.90;;;;;;5011125;28;20487;-45
2021/09/04 05:47:03;;;;;;;7.00;6.40;;;21.80;51.20;;;;;;5011075;28;20233;-46
2021/09/04 05:49:28;;;;;;;6.70;6.07;;;21.80;51.30;;;;;;5011513;28;20229;-45
2021/09/04 05:51:54;;;;;;;7.10;6.40;;;21.70;51.40;;;;;;5009287;28;20190;-45
2021/09/04 05:54:19;;;;;;;7.07;6.47;;;21.60;52.10;;;;;;5011218;28;20193;-44
2021/09/04 05:56:45;;;;;;;6.40;5.80;;;21.50;52.40;;;;;;5009913;28;20235;-45
2021/09/04 05:59:11;;;;;;;6.63;5.87;;;21.60;52.30;;;;;;5005862;28;20356;-45
2021/09/04 06:01:36;;;;;;;6.30;5.80;;;21.50;52.30;;;;;;5011467;28;20196;-44
2021/09/04 06:04:02;;;;;;;6.63;6.00;;;21.60;52.10;;;;;;5010535;28;20190;-45
2021/09/04 06:06:27;;;;;;;7.67;6.30;;;21.60;52.20;;;;;;5010737;28;20536;-44
2021/09/04 06:08:53;;;;;;;5.87;5.40;;;21.70;52.30;;;;;;5010262;28;20198;-45
2021/09/04 06:11:19;;;;;;;10.13;6.53;;;21.60;52.30;;;;;;5011094;28;20216;-46
2021/09/04 06:13:44;;;;;;;6.50;5.90;;;21.70;52.20;;;;;;5010568;28;20190;-44
2021/09/04 06:16:10;;;;;;;6.33;5.73;;;21.80;51.90;;;;;;5009278;28;20201;-45
2021/09/04 06:18:35;;;;;;;6.13;5.53;;;21.80;52.30;;;;;;5010350;28;20535;-45
2021/09/04 06:21:01;;;;;;;5.73;5.23;;;21.90;52.00;;;;;;5001926;28;20540;-45
2021/09/04 06:23:27;;;;;;;6.63;6.03;;;22.00;51.80;;;;;;4998326;28;20186;-46
2021/09/04 06:25:52;;;;;;;8.37;6.47;;;21.80;52.10;;;;;;5010976;28;20194;-45
2021/09/04 06:28:18;;;;;;;7.40;6.80;;;21.60;52.60;;;;;;5008729;28;20258;-46
2021/09/04 06:30:43;;;;;;;6.90;6.20;;;21.50;53.00;;;;;;5005635;28;20205;-45
2021/09/04 06:33:09;;;;;;;6.80;6.10;;;21.10;54.00;;;;;;5010400;28;20201;-47
2021/09/04 06:35:35;;;;;;;7.17;6.47;;;21.40;53.80;;;;;;5008291;28;20202;-45
2021/09/04 06:38:00;;;;;;;8.67;7.07;;;21.70;53.30;;;;;;5008874;28;20231;-45
2021/09/04 06:40:26;;;;;;;7.93;7.13;;;21.90;53.10;;;;;;4999557;28;20267;-47
2021/09/04 06:42:51;;;;;;;8.90;7.10;;;22.10;52.70;;;;;;5005603;28;20191;-45
2021/09/04 06:45:17;;;;;;;8.10;6.50;;;22.20;52.40;;;;;;5006726;28;20214;-50
2021/09/04 06:47:43;;;;;;;7.13;6.43;;;22.30;52.10;;;;;;4998615;28;20222;-47
2021/09/04 06:50:09;;;;;;;7.50;6.77;;;22.50;52.20;;;;;;5009131;28;20344;-45
2021/09/04 06:52:35;;;;;;;6.93;6.33;;;21.90;52.60;;;;;;5008455;28;20432;-46
2021/09/04 06:55:00;;;;;;;7.47;6.77;;;21.40;53.90;;;;;;5009699;28;20545;-49
2021/09/04 06:57:26;;;;;;;7.90;7.10;;;20.90;55.40;;;;;;5008016;28;20194;-49
2021/09/04 06:59:52;;;;;;;7.30;6.60;;;21.10;54.90;;;;;;5008547;28;20190;-45
2021/09/04 07:02:17;;;;;;;6.40;5.63;;;21.20;54.70;;;;;;5010047;28;20665;-45
2021/09/04 07:04:43;;;;;;;7.37;6.60;;;21.40;54.50;;;;;;5006446;28;20281;-45
2021/09/04 07:07:08;;;;;;;6.37;5.87;;;21.90;54.10;;;;;;5010297;28;20665;-50
2021/09/04 07:09:36;;;;;;;6.93;6.23;;;22.20;53.60;;;;;;5011069;28;20277;-45
2021/09/04 07:12:02;;;;;;;6.70;6.00;;;22.20;53.10;;;;;;5011714;28;20205;-46
2021/09/04 07:14:28;;;;;;;7.67;6.87;;;22.60;52.90;;;;;;5008428;28;20904;-50
2021/09/04 07:16:53;;;;;;;7.73;6.60;;;22.50;52.80;;;;;;5010492;28;20221;-47
2021/09/04 07:19:19;;;;;;;8.20;7.40;;;22.60;52.90;;;;;;5006780;28;20202;-46
2021/09/04 07:21:45;;;;;;;7.90;7.10;;;22.50;53.00;;;;;;5007530;28;20200;-46
2021/09/04 07:24:10;;;;;;;7.57;6.73;;;21.90;54.40;;;;;;5011360;28;20197;-47
2021/09/04 07:26:36;;;;;;;7.93;7.23;;;21.80;54.90;;;;;;5008859;28;20245;-47
2021/09/04 07:29:02;;;;;;;8.40;6.20;;;22.00;54.40;;;;;;5007352;28;20216;-45
2021/09/04 07:31:28;;;;;;;8.07;7.10;;;22.30;54.30;;;;;;5009981;28;20440;-45
2021/09/04 07:33:53;;;;;;;7.73;6.67;;;22.50;53.90;;;;;;5007166;28;20186;-46
2021/09/04 07:36:19;;;;;;;7.90;7.10;;;22.50;53.90;;;;;;5013285;28;20205;-45
2021/09/04 07:38:44;;;;;;;7.90;7.20;;;22.80;53.60;;;;;;5012742;28;20714;-46
2021/09/04 07:41:10;;;;;;;7.63;6.83;;;22.80;53.40;;;;;;5013133;28;21308;-46
2021/09/04 07:43:36;;;;;;;8.50;6.93;;;23.00;53.40;;;;;;5014683;28;20606;-46
2021/09/04 07:46:02;;;;;;;9.27;7.47;;;22.90;53.10;;;;;;5012350;28;20222;-45
2021/09/04 07:48:27;;;;;;;8.80;7.77;;;22.80;53.10;;;;;;5012436;28;20288;-46
2021/09/04 07:50:54;;;;;;;7.97;7.17;;;22.90;53.40;;;;;;5008831;28;20240;-47
2021/09/04 07:53:19;;;;;;;7.90;6.70;;;23.10;53.00;;;;;;5010133;28;20217;-45
2021/09/04 07:55:45;;;;;;;8.67;7.87;;;23.10;53.00;;;;;;5001249;28;20481;-44
2021/09/04 07:58:10;;;;;;;7.87;7.10;;;23.30;53.30;;;;;;5005928;28;20230;-44
2021/09/04 08:00:36;;;;;;;9.53;7.33;;;23.30;53.00;;;;;;5009046;28;20190;-45
2021/09/04 08:03:02;;;;;;;7.87;7.17;;;23.50;52.70;;;;;;5013949;28;20570;-47
2021/09/04 08:05:27;;;;;;;7.73;7.03;;;23.70;52.60;;;;;;5014476;28;20194;-45
2021/09/04 08:07:53;;;;;;;8.27;6.90;;;23.80;52.60;;;;;;5013723;28;20252;-47
2021/09/04 08:10:19;;;;;;;8.10;7.40;;;23.90;52.20;;;;;;5014844;28;20186;-44
2021/09/04 08:12:44;;;;;;;8.40;7.60;;;24.00;52.00;;;;;;5011805;28;20202;-47
2021/09/04 08:15:10;;;;;;;9.27;8.10;;;24.00;51.70;;;;;;5014028;28;20328;-46
2021/09/04 08:17:36;;;;;;;8.27;7.57;;;24.10;51.70;;;;;;5013216;28;20802;-46
2021/09/04 08:20:02;;;;;;;7.73;6.80;;;24.30;51.70;;;;;;5014772;28;20268;-46
2021/09/04 08:22:28;;;;;;;8.70;7.90;;;24.30;51.60;;;;;;5011976;28;20217;-46
2021/09/04 08:24:54;;;;;;;8.07;7.37;;;24.30;51.90;;;;;;5014413;28;20432;-45
2021/09/04 08:27:20;;;;;;;9.03;6.90;;;24.20;51.80;;;;;;5006912;28;20481;-48
2021/09/04 08:29:45;;;;;;;7.23;6.53;;;24.40;51.60;;;;;;4994959;28;20282;-46
2021/09/04 08:32:11;;;;;;;8.27;7.47;;;24.60;51.20;;;;;;5007293;28;20198;-45
2021/09/04 08:34:36;;;;;;;7.77;6.53;;;24.80;51.00;;;;;;5013836;28;20204;-45
2021/09/04 08:37:03;;;;;;;6.93;6.30;;;24.90;51.30;;;;;;5013524;28;20202;-45
2021/09/04 08:39:29;;;;;;;8.47;6.30;;;25.00;50.90;;;;;;4999379;28;20282;-48
2021/09/04 08:41:55;;;;;;;6.73;6.13;;;24.80;50.50;;;;;;5000428;28;21280;-44
2021/09/04 08:44:21;;;;;;;8.03;6.50;;;25.10;50.50;;;;;;5012127;28;20639;-46
2021/09/04 08:46:49;;;;;;;6.93;6.33;;;25.40;50.50;;;;;;5012707;28;20257;-48
2021/09/04 08:49:15;;;;;;;10.50;6.40;;;25.50;49.50;;;;;;5000362;28;20963;-46
2021/09/04 08:51:41;;;;;;;8.00;6.70;;;25.70;49.50;;;;;;5012911;28;20429;-47
2021/09/04 08:54:07;;;;;;;6.93;6.23;;;25.80;49.20;;;;;;5013253;28;20432;-46
2021/09/04 08:56:32;;;;;;;7.53;6.30;;;25.90;49.10;;;;;;5010239;28;20186;-45
2021/09/04 08:58:58;;;;;;;6.87;6.27;;;26.10;48.90;;;;;;5013300;28;20230;-45
2021/09/04 09:01:26;;;;;;;10.13;6.03;;;26.10;47.90;;;;;;5007321;28;20199;-44
2021/09/04 09:03:55;;;;;;;6.30;5.30;;;26.30;48.00;;;;;;4993663;28;20191;-45
2021/09/04 09:06:29;;;;;;;6.60;6.00;;;26.30;47.40;;;;;;5007917;28;20481;-46
2021/09/04 09:08:55;;;;;;;9.30;4.83;;;26.20;46.60;;;;;;5012527;28;20511;-46
2021/09/04 09:11:21;;;;;;;6.77;5.20;;;26.40;46.50;;;;;;5005182;28;20427;-45
2021/09/04 09:13:49;;;;;;;6.07;5.47;;;26.60;46.40;;;;;;4993168;28;20520;-45
2021/09/04 09:16:17;;;;;;;6.30;5.80;;;26.80;45.40;;;;;;4999596;28;20442;-44
2021/09/04 09:18:58;;;;;;;6.10;5.60;;;26.90;45.90;;;;;;5005243;28;20795;-45
2021/09/04 09:21:30;;;;;;;7.07;5.77;;;26.80;46.10;;;;;;5012907;28;20491;-44
2021/09/04 09:24:14;;;;;;;6.10;5.50;;;26.80;45.70;;;;;;5007385;28;20468;-46
2021/09/04 09:26:50;;;;;;;5.50;4.63;;;27.00;45.70;;;;;;4993177;28;20483;-45
2021/09/04 09:29:33;;;;;;;5.40;4.90;;;27.40;46.30;;;;;;5007647;28;20548;-46
2021/09/04 09:32:06;;;;;;;5.87;4.70;;;27.20;45.20;;;;;;5008309;28;20461;-44
2021/09/04 09:34:54;;;;;;;6.07;5.57;;;27.40;45.10;;;;;;5008663;28;20935;-45
2021/09/04 09:37:19;;;;;;;5.87;5.23;;;27.30;44.80;;;;;;4992559;28;20461;-46
2021/09/04 09:39:45;;;;;;;5.70;5.20;;;27.30;44.50;;;;;;5010988;28;20488;-45
2021/09/04 09:42:12;;;;;;;5.33;4.87;;;27.60;45.00;;;;;;5000119;28;20213;-45
2021/09/04 09:44:40;;;;;;;6.17;5.00;;;28.00;44.10;;;;;;5010164;28;20649;-45
2021/09/04 09:47:08;;;;;;;5.73;4.73;;;28.30;44.00;;;;;;5006022;28;20484;-47
2021/09/04 09:49:42;;;;;;;6.13;5.07;;;28.50;42.30;;;;;;5011935;28;20429;-44
2021/09/04 09:52:17;;;;;;;5.33;4.83;;;28.70;42.60;;;;;;5012263;28;20962;-45
2021/09/04 09:54:45;;;;;;;5.37;4.97;;;28.80;41.70;;;;;;5006308;28;20436;-45
2021/09/04 09:57:12;;;;;;;4.87;4.40;;;28.70;41.40;;;;;;4993866;28;20429;-45
2021/09/04 09:59:38;;;;;;;7.00;5.20;;;29.00;41.60;;;;;;5006492;28;20465;-44
2021/09/04 10:02:09;;;;;;;5.20;4.80;;;29.30;40.70;;;;;;5010670;28;20440;-47
2021/09/04 10:04:36;;;;;;;6.00;5.50;;;29.40;40.90;;;;;;5008397;28;20990;-44
2021/09/04 10:07:04;;;;;;;5.53;5.03;;;29.60;39.80;;;;;;5010028;28;20538;-45
2021/09/04 10:09:30;;;;;;;5.23;4.73;;;29.50;38.40;;;;;;5007266;28;20436;-45
2021/09/04 10:11:56;;;;;;;4.50;4.10;;;29.00;38.30;;;;;;5007611;28;20983;-46
2021/09/04 10:14:22;;;;;;;4.13;3.83;;;29.20;39.10;;;;;;5010898;28;20216;-44
2021/09/04 10:16:53;;;;;;;4.47;4.17;;;29.50;36.80;;;;;;5009173;28;20717;-45
2021/09/04 10:19:24;;;;;;;5.20;4.60;;;29.70;36.20;;;;;;5010598;28;20425;-45
2021/09/04 10:21:57;;;;;;;4.60;4.20;;;30.00;36.60;;;;;;5008282;28;20426;-45
2021/09/04 10:24:42;;;;;;;4.67;4.27;;;30.20;36.30;;;;;;4999192;28;20445;-46
2021/09/04 10:27:13;;;;;;;4.70;3.67;;;30.00;36.10;;;;;;5010921;28;20488;-48
2021/09/04 10:29:44;;;;;;;4.03;3.73;;;29.90;34.50;;;;;;5005917;28;20433;-45
2021/09/04 10:32:16;;;;;;;4.80;4.40;;;30.00;34.20;;;;;;5004724;28;20449;-46
2021/09/04 10:34:44;;;;;;;4.90;4.50;;;30.20;34.90;;;;;;5003188;28;20983;-48
2021/09/04 10:37:15;;;;;;;4.87;4.37;;;30.20;36.10;;;;;;5009890;28;20452;-47
2021/09/04 10:40:00;;;;;;;5.03;4.53;;;30.50;36.00;;;;;;5007518;28;20437;-45
2021/09/04 10:42:31;;;;;;;4.90;4.50;;;30.90;37.00;;;;;;5003948;28;20517;-49
2021/09/04 10:45:17;;;;;;;5.97;5.47;;;31.20;36.30;;;;;;5010925;28;20465;-48
2021/09/04 10:47:56;;;;;;;4.90;4.50;;;31.10;35.40;;;;;;4991551;28;20485;-45
2021/09/04 10:50:25;;;;;;;6.23;4.90;;;31.30;36.90;;;;;;5010851;28;20476;-47
2021/09/04 10:53:03;;;;;;;5.40;4.30;;;31.60;37.60;;;;;;5007439;28;20465;-46
2021/09/04 10:55:29;;;;;;;7.90;4.47;;;31.90;36.20;;;;;;5009067;28;20437;-48
2021/09/04 10:58:18;;;;;;;4.23;3.93;;;32.10;34.80;;;;;;5002436;28;20840;-45
2021/09/04 11:00:46;;;;;;;4.80;4.40;;;31.80;34.10;;;;;;4995217;28;20277;-47
2021/09/04 11:03:17;;;;;;;5.07;4.33;;;32.00;34.20;;;;;;5008048;28;20448;-47
2021/09/04 11:05:54;;;;;;;10.57;4.80;;;32.20;34.00;;;;;;5007980;28;20483;-47
2021/09/04 11:08:20;;;;;;;6.37;4.30;;;32.10;33.50;;;;;;5006314;28;20495;-46
2021/09/04 11:10:48;;;;;;;4.93;4.53;;;31.90;33.10;;;;;;4998520;28;20941;-46
2021/09/04 11:13:13;;;;;;;3.90;3.60;;;32.00;33.50;;;;;;5012805;28;20635;-47
2021/09/04 11:15:40;;;;;;;5.47;4.87;;;31.70;32.60;;;;;;5014586;28;20531;-46
2021/09/04 11:18:05;;;;;;;4.60;4.20;;;31.90;31.80;;;;;;5013063;28;20228;-49
2021/09/04 11:20:31;;;;;;;6.43;4.43;;;32.30;31.70;;;;;;5000427;28;20461;-47
2021/09/04 11:22:57;;;;;;;4.33;3.93;;;32.40;31.10;;;;;;5014163;28;20217;-44
2021/09/04 11:25:23;;;;;;;4.50;4.10;;;32.30;30.60;;;;;;5012904;28;20212;-46
2021/09/04 11:27:49;;;;;;;4.13;3.83;;;32.60;31.70;;;;;;5013990;28;20477;-48
2021/09/04 11:30:21;;;;;;;5.00;4.60;;;32.60;31.50;;;;;;5010808;28;20186;-45
2021/09/04 11:32:47;;;;;;;4.43;4.03;;;32.70;31.20;;;;;;5012670;28;20433;-45
2021/09/04 11:35:13;;;;;;;5.23;4.83;;;33.00;31.60;;;;;;5014871;28;20440;-46
2021/09/04 11:37:42;;;;;;;4.67;4.37;;;33.00;30.50;;;;;;5013936;28;20597;-45
2021/09/04 11:40:21;;;;;;;4.70;4.30;;;32.20;30.90;;;;;;5014300;28;20244;-45
2021/09/04 11:42:49;;;;;;;4.20;3.90;;;31.90;31.30;;;;;;5010895;28;20436;-45
2021/09/04 11:45:19;;;;;;;4.70;4.30;;;32.10;31.10;;;;;;5006087;28;20618;-46
2021/09/04 11:47:47;;;;;;;4.40;4.10;;;31.70;30.40;;;;;;5011542;28;20494;-49
2021/09/04 11:50:27;;;;;;;4.23;3.93;;;31.80;31.50;;;;;;5014158;28;20428;-45
2021/09/04 11:52:53;;;;;;;4.83;4.43;;;32.40;31.20;;;;;;5007802;28;20436;-47
2021/09/04 11:55:22;;;;;;;5.03;4.60;;;32.20;30.40;;;;;;5012692;28;20460;-49
2021/09/04 11:57:52;;;;;;;4.40;4.00;;;32.10;30.40;;;;;;5008890;28;21016;-49
2021/09/04 12:00:24;;;;;;;5.20;4.80;;;32.50;31.40;;;;;;5003473;28;22602;-47
2021/09/04 12:02:56;;;;;;;4.87;4.47;;;33.00;31.20;;;;;;5013716;28;20471;-47
2021/09/04 12:05:29;;;;;;;6.20;4.27;;;33.40;32.10;;;;;;5012867;28;20444;-45
2021/09/04 12:08:00;;;;;;;4.60;4.27;;;33.50;30.20;;;;;;5008548;28;20489;-48
2021/09/04 12:10:29;;;;;;;4.73;4.33;;;33.50;30.80;;;;;;5013845;28;20454;-48
2021/09/04 12:13:04;;;;;;;11.20;4.47;;;33.80;30.80;;;;;;5011010;28;20433;-47
2021/09/04 12:15:31;;;;;;;5.57;5.07;;;34.20;30.20;;;;;;5012394;28;20478;-51
2021/09/04 12:18:02;;;;;;;5.40;4.90;;;34.20;30.50;;;;;;5013272;28;20439;-47
2021/09/04 12:20:32;;;;;;;4.73;4.33;;;34.00;30.30;;;;;;5006671;28;20502;-48
2021/09/04 12:23:10;;;;;;;5.50;4.30;;;34.10;30.00;;;;;;5009785;28;20445;-46
2021/09/04 12:25:36;;;;;;;4.30;4.00;;;34.40;29.70;;;;;;5012907;28;20860;-51
2021/09/04 12:28:06;;;;;;;5.13;4.73;;;34.50;29.40;;;;;;5013297;28;20492;-48
2021/09/04 12:30:33;;;;;;;6.20;5.70;;;34.70;29.20;;;;;;5013737;28;20198;-48
2021/09/04 12:33:08;;;;;;;5.40;4.90;;;33.80;29.60;;;;;;5005196;28;20447;-47
2021/09/04 12:35:55;;;;;;;5.07;4.67;;;33.20;31.00;;;;;;5012693;28;20479;-50
2021/09/04 12:38:45;;;;;;;5.60;4.87;;;33.70;30.90;;;;;;5007588;28;20516;-49
2021/09/04 12:41:15;;;;;;;5.60;5.10;;;34.20;30.60;;;;;;4991370;28;20468;-51
2021/09/04 12:43:52;;;;;;;5.03;4.00;;;34.50;30.60;;;;;;5011632;28;20801;-48
2021/09/04 12:46:35;;;;;;;4.97;4.57;;;34.70;30.20;;;;;;5011942;28;20531;-48